sensor_id;sensor_type;location;lat;lon;timestamp;pressure;altitude;pressure_sealevel;temperature;humidity
65534;BME280;53640;55.838;37.184;2023-11-18T00:00:30;100033.09;;;-6.89;52.26
65534;BME280;53640;55.838;37.184;2023-11-18T00:02:58;100032.25;;;-6.90;52.51
65534;BME280;53640;55.838;37.184;2023-11-18T00:05:25;100022.34;;;-7.01;52.35
65534;BME280;53640;55.838;37.184;2023-11-18T00:07:52;100020.31;;;-6.96;52.35
65534;BME280;53640;55.838;37.184;2023-11-18T00:10:19;100024.97;;;-7.01;52.13
65534;BME280;53640;55.838;37.184;2023-11-18T00:12:45;100002.97;;;-7.14;52.25
65534;BME280;53640;55.838;37.184;2023-11-18T00:15:13;100019.81;;;-7.02;52.12
65534;BME280;53640;55.838;37.184;2023-11-18T00:17:39;100024.03;;;-7.00;52.18
65534;BME280;53640;55.838;37.184;2023-11-18T00:20:07;100017.44;;;-7.07;52.16
65534;BME280;53640;55.838;37.184;2023-11-18T00:22:39;99987.13;;;-7.28;52.26
65534;BME280;53640;55.838;37.184;2023-11-18T00:25:08;99993.22;;;-7.28;52.10
65534;BME280;53640;55.838;37.184;2023-11-18T00:27:35;100008.56;;;-7.20;52.25
65534;BME280;53640;55.838;37.184;2023-11-18T00:30:03;100042.53;;;-7.01;52.29
65534;BME280;53640;55.838;37.184;2023-11-18T00:32:33;100040.00;;;-7.03;52.36
65534;BME280;53640;55.838;37.184;2023-11-18T00:35:01;100043.38;;;-7.01;52.48
65534;BME280;53640;55.838;37.184;2023-11-18T00:37:30;99984.84;;;-7.34;52.39
65534;BME280;53640;55.838;37.184;2023-11-18T00:39:57;100001.13;;;-7.28;52.34
65534;BME280;53640;55.838;37.184;2023-11-18T00:42:24;99994.41;;;-7.33;52.38
65534;BME280;53640;55.838;37.184;2023-11-18T00:44:52;100051.44;;;-7.04;52.28
65534;BME280;53640;55.838;37.184;2023-11-18T00:47:21;100033.47;;;-7.11;52.15
65534;BME280;53640;55.838;37.184;2023-11-18T00:49:49;100012.56;;;-7.29;52.25
65534;BME280;53640;55.838;37.184;2023-11-18T00:52:18;100015.66;;;-7.36;52.29
65534;BME280;53640;55.838;37.184;2023-11-18T00:54:47;100029.38;;;-7.31;52.28
65534;BME280;53640;55.838;37.184;2023-11-18T00:57:14;100065.31;;;-7.16;52.41
65534;BME280;53640;55.838;37.184;2023-11-18T00:59:42;100056.84;;;-7.21;52.28
65534;BME280;53640;55.838;37.184;2023-11-18T01:02:11;100034.91;;;-7.36;52.77
65534;BME280;53640;55.838;37.184;2023-11-18T01:04:39;100043.63;;;-7.35;52.64
65534;BME280;53640;55.838;37.184;2023-11-18T01:07:05;100004.97;;;-7.65;52.66
65534;BME280;53640;55.838;37.184;2023-11-18T01:09:32;100056.44;;;-7.29;52.65
65534;BME280;53640;55.838;37.184;2023-11-18T01:12:05;100051.69;;;-7.38;52.77
65534;BME280;53640;55.838;37.184;2023-11-18T01:14:34;100008.44;;;-7.64;52.22
65534;BME280;53640;55.838;37.184;2023-11-18T01:17:00;100050.94;;;-7.40;52.51
65534;BME280;53640;55.838;37.184;2023-11-18T01:19:27;100060.09;;;-7.32;52.49
65534;BME280;53640;55.838;37.184;2023-11-18T01:21:56;100045.84;;;-7.43;52.38
65534;BME280;53640;55.838;37.184;2023-11-18T01:24:23;100056.19;;;-7.40;52.24
65534;BME280;53640;55.838;37.184;2023-11-18T01:26:50;100076.81;;;-7.33;52.50
65534;BME280;53640;55.838;37.184;2023-11-18T01:29:17;99945.31;;;-8.10;52.59
65534;BME280;53640;55.838;37.184;2023-11-18T01:31:43;100072.13;;;-7.43;52.41
65534;BME280;53640;55.838;37.184;2023-11-18T01:34:10;100029.16;;;-7.58;52.44
65534;BME280;53640;55.838;37.184;2023-11-18T01:36:38;99997.00;;;-7.79;52.85
65534;BME280;53640;55.838;37.184;2023-11-18T01:39:04;100036.34;;;-7.62;52.70
65534;BME280;53640;55.838;37.184;2023-11-18T01:41:33;100078.06;;;-7.40;52.82
65534;BME280;53640;55.838;37.184;2023-11-18T01:43:59;100063.75;;;-7.50;52.81
65534;BME280;53640;55.838;37.184;2023-11-18T01:46:27;100048.72;;;-7.64;52.79
65534;BME280;53640;55.838;37.184;2023-11-18T01:48:56;100066.47;;;-7.52;52.95
65534;BME280;53640;55.838;37.184;2023-11-18T01:51:25;100065.69;;;-7.54;52.95
65534;BME280;53640;55.838;37.184;2023-11-18T01:53:54;100065.00;;;-7.57;52.75
65534;BME280;53640;55.838;37.184;2023-11-18T01:56:22;100028.53;;;-7.79;52.82
65534;BME280;53640;55.838;37.184;2023-11-18T01:58:52;100078.56;;;-7.49;53.04
65534;BME280;53640;55.838;37.184;2023-11-18T02:01:19;100049.56;;;-7.79;52.87
65534;BME280;53640;55.838;37.184;2023-11-18T02:03:46;100006.34;;;-7.89;53.07
65534;BME280;53640;55.838;37.184;2023-11-18T02:06:14;100064.41;;;-7.62;53.21
65534;BME280;53640;55.838;37.184;2023-11-18T02:08:48;100032.09;;;-7.80;53.16
65534;BME280;53640;55.838;37.184;2023-11-18T02:11:31;100056.69;;;-7.65;53.26
65534;BME280;53640;55.838;37.184;2023-11-18T02:14:00;100076.31;;;-7.55;53.06
65534;BME280;53640;55.838;37.184;2023-11-18T02:16:32;100074.00;;;-7.61;52.97
65534;BME280;53640;55.838;37.184;2023-11-18T02:19:02;100028.38;;;-7.92;52.99
65534;BME280;53640;55.838;37.184;2023-11-18T02:21:32;100011.41;;;-8.02;53.20
65534;BME280;53640;55.838;37.184;2023-11-18T02:24:00;100037.00;;;-7.90;53.10
65534;BME280;53640;55.838;37.184;2023-11-18T02:26:28;100038.53;;;-7.86;53.18
65534;BME280;53640;55.838;37.184;2023-11-18T02:28:54;100020.91;;;-8.00;53.37
65534;BME280;53640;55.838;37.184;2023-11-18T02:31:27;100079.56;;;-7.68;53.03
65534;BME280;53640;55.838;37.184;2023-11-18T02:34:04;100045.56;;;-7.86;53.19
65534;BME280;53640;55.838;37.184;2023-11-18T02:36:39;100021.06;;;-8.03;53.40
65534;BME280;53640;55.838;37.184;2023-11-18T02:39:12;100034.06;;;-8.00;53.29
65534;BME280;53640;55.838;37.184;2023-11-18T02:41:46;100056.03;;;-7.85;53.41
65534;BME280;53640;55.838;37.184;2023-11-18T02:44:16;100078.22;;;-7.75;53.29
65534;BME280;53640;55.838;37.184;2023-11-18T02:46:44;99999.22;;;-8.19;53.40
65534;BME280;53640;55.838;37.184;2023-11-18T02:49:11;100054.28;;;-7.86;53.53
65534;BME280;53640;55.838;37.184;2023-11-18T02:51:39;100054.50;;;-7.89;53.38
65534;BME280;53640;55.838;37.184;2023-11-18T02:54:08;100060.66;;;-7.90;53.54
65534;BME280;53640;55.838;37.184;2023-11-18T02:56:37;100064.06;;;-7.88;53.59
65534;BME280;53640;55.838;37.184;2023-11-18T02:59:04;100086.34;;;-7.79;53.62
65534;BME280;53640;55.838;37.184;2023-11-18T03:01:34;100065.84;;;-7.88;53.64
65534;BME280;53640;55.838;37.184;2023-11-18T03:04:01;100036.16;;;-8.06;53.70
65534;BME280;53640;55.838;37.184;2023-11-18T03:06:29;99993.69;;;-8.30;53.48
65534;BME280;53640;55.838;37.184;2023-11-18T03:08:56;100078.56;;;-7.81;53.50
65534;BME280;53640;55.838;37.184;2023-11-18T03:11:23;100008.09;;;-8.22;53.41
65534;BME280;53640;55.838;37.184;2023-11-18T03:13:49;100028.94;;;-8.19;53.65
65534;BME280;53640;55.838;37.184;2023-11-18T03:16:16;100035.31;;;-8.07;53.49
65534;BME280;53640;55.838;37.184;2023-11-18T03:18:44;100069.56;;;-7.93;53.76
65534;BME280;53640;55.838;37.184;2023-11-18T03:21:12;100062.59;;;-7.94;53.74
65534;BME280;53640;55.838;37.184;2023-11-18T03:23:39;100064.47;;;-7.96;53.77
65534;BME280;53640;55.838;37.184;2023-11-18T03:26:09;100052.91;;;-8.09;53.77
65534;BME280;53640;55.838;37.184;2023-11-18T03:28:40;100065.56;;;-8.00;53.84
65534;BME280;53640;55.838;37.184;2023-11-18T03:31:07;100082.88;;;-7.96;53.81
65534;BME280;53640;55.838;37.184;2023-11-18T03:33:35;100081.75;;;-7.91;53.72
65534;BME280;53640;55.838;37.184;2023-11-18T03:36:02;100080.06;;;-7.93;54.01
65534;BME280;53640;55.838;37.184;2023-11-18T03:38:31;100045.44;;;-8.17;53.90
65534;BME280;53640;55.838;37.184;2023-11-18T03:40:57;100021.78;;;-8.32;53.89
65534;BME280;53640;55.838;37.184;2023-11-18T03:43:24;100033.56;;;-8.24;53.89
65534;BME280;53640;55.838;37.184;2023-11-18T03:45:51;100041.91;;;-8.15;53.96
65534;BME280;53640;55.838;37.184;2023-11-18T03:48:23;100071.50;;;-7.96;53.87
65534;BME280;53640;55.838;37.184;2023-11-18T03:50:51;100044.59;;;-8.17;53.65
65534;BME280;53640;55.838;37.184;2023-11-18T03:53:19;100049.69;;;-8.14;53.73
65534;BME280;53640;55.838;37.184;2023-11-18T03:55:46;100061.66;;;-8.08;53.74
65534;BME280;53640;55.838;37.184;2023-11-18T03:58:13;100020.16;;;-8.35;53.80
65534;BME280;53640;55.838;37.184;2023-11-18T04:00:39;100079.56;;;-7.99;53.74
65534;BME280;53640;55.838;37.184;2023-11-18T04:03:06;100066.03;;;-8.09;53.79
65534;BME280;53640;55.838;37.184;2023-11-18T04:05:33;100085.75;;;-8.00;53.84
65534;BME280;53640;55.838;37.184;2023-11-18T04:08:01;100083.28;;;-8.03;54.01
65534;BME280;53640;55.838;37.184;2023-11-18T04:10:28;100090.06;;;-7.99;53.97
65534;BME280;53640;55.838;37.184;2023-11-18T04:12:55;100063.13;;;-8.20;53.88
65534;BME280;53640;55.838;37.184;2023-11-18T04:15:24;100064.75;;;-8.18;53.93
65534;BME280;53640;55.838;37.184;2023-11-18T04:17:51;100045.09;;;-8.26;53.77
65534;BME280;53640;55.838;37.184;2023-11-18T04:20:18;100083.28;;;-8.03;53.79
65534;BME280;53640;55.838;37.184;2023-11-18T04:22:49;100053.56;;;-8.21;53.74
65534;BME280;53640;55.838;37.184;2023-11-18T04:25:15;100061.38;;;-8.20;53.48
65534;BME280;53640;55.838;37.184;2023-11-18T04:27:43;100088.00;;;-8.10;53.68
65534;BME280;53640;55.838;37.184;2023-11-18T04:30:11;100053.28;;;-8.32;53.89
65534;BME280;53640;55.838;37.184;2023-11-18T04:32:40;100023.53;;;-8.49;53.68
65534;BME280;53640;55.838;37.184;2023-11-18T04:35:09;100008.25;;;-8.58;53.96
65534;BME280;53640;55.838;37.184;2023-11-18T04:37:38;100085.88;;;-8.19;53.80
65534;BME280;53640;55.838;37.184;2023-11-18T04:40:08;100068.78;;;-8.28;53.69
65534;BME280;53640;55.838;37.184;2023-11-18T04:42:41;100099.59;;;-8.14;53.80
65534;BME280;53640;55.838;37.184;2023-11-18T04:45:08;100029.94;;;-8.54;53.84
65534;BME280;53640;55.838;37.184;2023-11-18T04:47:36;100091.13;;;-8.19;54.43
65534;BME280;53640;55.838;37.184;2023-11-18T04:50:04;100048.97;;;-8.33;54.05
65534;BME280;53640;55.838;37.184;2023-11-18T04:52:30;100038.19;;;-8.45;54.02
65534;BME280;53640;55.838;37.184;2023-11-18T04:55:00;100071.94;;;-8.21;54.04
65534;BME280;53640;55.838;37.184;2023-11-18T04:57:27;100060.91;;;-8.28;54.09
65534;BME280;53640;55.838;37.184;2023-11-18T04:59:54;100078.91;;;-8.20;54.13
65534;BME280;53640;55.838;37.184;2023-11-18T05:02:21;100037.09;;;-8.40;54.11
65534;BME280;53640;55.838;37.184;2023-11-18T05:04:48;100082.41;;;-8.20;53.93
65534;BME280;53640;55.838;37.184;2023-11-18T05:07:16;100031.72;;;-8.55;53.83
65534;BME280;53640;55.838;37.184;2023-11-18T05:09:43;100033.94;;;-8.47;54.03
65534;BME280;53640;55.838;37.184;2023-11-18T05:12:09;100085.19;;;-8.23;53.95
65534;BME280;53640;55.838;37.184;2023-11-18T05:14:37;100091.34;;;-8.24;53.96
65534;BME280;53640;55.838;37.184;2023-11-18T05:17:04;100091.34;;;-8.24;54.07
65534;BME280;53640;55.838;37.184;2023-11-18T05:19:31;100057.66;;;-8.49;54.08
65534;BME280;53640;55.838;37.184;2023-11-18T05:21:57;100044.91;;;-8.56;54.30
65534;BME280;53640;55.838;37.184;2023-11-18T05:24:26;100097.47;;;-8.23;54.41
65534;BME280;53640;55.838;37.184;2023-11-18T05:26:53;100111.94;;;-8.16;54.51
65534;BME280;53640;55.838;37.184;2023-11-18T05:29:19;100079.94;;;-8.40;54.39
65534;BME280;53640;55.838;37.184;2023-11-18T05:31:47;100107.22;;;-8.09;54.43
65534;BME280;53640;55.838;37.184;2023-11-18T05:34:14;100120.19;;;-8.06;54.67
65534;BME280;53640;55.838;37.184;2023-11-18T05:36:42;100104.53;;;-8.08;54.58
65534;BME280;53640;55.838;37.184;2023-11-18T05:39:09;100101.66;;;-8.03;54.83
65534;BME280;53640;55.838;37.184;2023-11-18T05:41:35;100116.75;;;-7.91;54.58
65534;BME280;53640;55.838;37.184;2023-11-18T05:44:06;100114.66;;;-7.84;54.73
65534;BME280;53640;55.838;37.184;2023-11-18T05:46:35;100120.19;;;-7.73;54.74
65534;BME280;53640;55.838;37.184;2023-11-18T05:49:03;100082.69;;;-7.93;54.74
65534;BME280;53640;55.838;37.184;2023-11-18T05:51:34;100110.22;;;-7.66;54.43
65534;BME280;53640;55.838;37.184;2023-11-18T05:54:01;100099.69;;;-7.66;54.53
65534;BME280;53640;55.838;37.184;2023-11-18T05:56:27;100125.16;;;-7.51;54.59
65534;BME280;53640;55.838;37.184;2023-11-18T05:58:54;100125.91;;;-7.49;54.37
65534;BME280;53640;55.838;37.184;2023-11-18T06:01:20;100084.94;;;-7.69;54.03
65534;BME280;53640;55.838;37.184;2023-11-18T06:03:47;100128.63;;;-7.35;54.30
65534;BME280;53640;55.838;37.184;2023-11-18T06:06:15;100119.72;;;-7.32;54.19
65534;BME280;53640;55.838;37.184;2023-11-18T06:08:43;100126.50;;;-7.28;54.00
65534;BME280;53640;55.838;37.184;2023-11-18T06:11:11;100120.88;;;-7.22;54.00
65534;BME280;53640;55.838;37.184;2023-11-18T06:13:49;100073.72;;;-7.41;53.69
65534;BME280;53640;55.838;37.184;2023-11-18T06:16:23;100131.06;;;-7.00;53.66
65534;BME280;53640;55.838;37.184;2023-11-18T06:18:54;100091.78;;;-7.19;53.81
65534;BME280;53640;55.838;37.184;2023-11-18T06:21:22;100125.88;;;-6.86;53.48
65534;BME280;53640;55.838;37.184;2023-11-18T06:23:57;100099.25;;;-6.96;53.37
65534;BME280;53640;55.838;37.184;2023-11-18T06:26:24;100133.66;;;-6.68;53.15
65534;BME280;53640;55.838;37.184;2023-11-18T06:28:54;100100.31;;;-6.84;52.92
65534;BME280;53640;55.838;37.184;2023-11-18T06:31:20;100109.84;;;-6.67;52.91
65534;BME280;53640;55.838;37.184;2023-11-18T06:33:47;100127.22;;;-6.49;52.48
65534;BME280;53640;55.838;37.184;2023-11-18T06:38:45;100105.13;;;-6.46;52.23
65534;BME280;53640;55.838;37.184;2023-11-18T06:41:13;100141.22;;;-6.18;51.82
65534;BME280;53640;55.838;37.184;2023-11-18T06:43:42;100154.59;;;-6.07;51.77
65534;BME280;53640;55.838;37.184;2023-11-18T06:46:34;100097.81;;;-6.27;51.50
65534;BME280;53640;55.838;37.184;2023-11-18T06:49:03;100138.25;;;-5.97;51.48
65534;BME280;53640;55.838;37.184;2023-11-18T06:51:32;100090.19;;;-6.17;51.12
65534;BME280;53640;55.838;37.184;2023-11-18T06:54:02;100093.69;;;-6.02;51.15
65534;BME280;53640;55.838;37.184;2023-11-18T06:56:37;100096.16;;;-5.99;50.95
65534;BME280;53640;55.838;37.184;2023-11-18T06:59:07;100105.84;;;-5.85;50.94
65534;BME280;53640;55.838;37.184;2023-11-18T07:01:34;100122.59;;;-5.72;50.65
65534;BME280;53640;55.838;37.184;2023-11-18T07:04:02;100108.75;;;-5.76;50.37
65534;BME280;53640;55.838;37.184;2023-11-18T07:06:30;100142.25;;;-5.35;50.32
65534;BME280;53640;55.838;37.184;2023-11-18T07:08:57;100020.56;;;-5.99;50.12
65534;BME280;53640;55.838;37.184;2023-11-18T07:11:27;100134.31;;;-5.20;50.00
65534;BME280;53640;55.838;37.184;2023-11-18T07:13:56;100148.44;;;-5.07;49.78
65534;BME280;53640;55.838;37.184;2023-11-18T07:16:25;100108.94;;;-5.23;49.62
65534;BME280;53640;55.838;37.184;2023-11-18T07:18:52;100114.31;;;-5.10;49.34
65534;BME280;53640;55.838;37.184;2023-11-18T07:21:19;100121.22;;;-4.95;49.51
65534;BME280;53640;55.838;37.184;2023-11-18T07:23:49;100136.09;;;-4.67;49.00
65534;BME280;53640;55.838;37.184;2023-11-18T07:26:16;100069.66;;;-5.01;48.67
65534;BME280;53640;55.838;37.184;2023-11-18T07:28:45;100138.38;;;-4.48;48.63
65534;BME280;53640;55.838;37.184;2023-11-18T07:31:13;100101.19;;;-4.58;48.26
65534;BME280;53640;55.838;37.184;2023-11-18T07:33:40;100118.75;;;-4.31;48.26
65534;BME280;53640;55.838;37.184;2023-11-18T07:36:08;100112.75;;;-4.20;48.07
65534;BME280;53640;55.838;37.184;2023-11-18T07:38:37;100147.75;;;-3.91;47.95
65534;BME280;53640;55.838;37.184;2023-11-18T07:41:03;100127.78;;;-3.83;47.63
65534;BME280;53640;55.838;37.184;2023-11-18T07:43:30;100150.91;;;-3.48;47.30
65534;BME280;53640;55.838;37.184;2023-11-18T07:45:59;100129.94;;;-3.38;47.08
65534;BME280;53640;55.838;37.184;2023-11-18T07:48:25;100083.91;;;-3.48;46.35
65534;BME280;53640;55.838;37.184;2023-11-18T07:50:52;100100.00;;;-3.15;45.82
65534;BME280;53640;55.838;37.184;2023-11-18T07:53:19;100101.06;;;-2.93;45.50
65534;BME280;53640;55.838;37.184;2023-11-18T07:55:45;100152.53;;;-2.37;45.13
65534;BME280;53640;55.838;37.184;2023-11-18T07:58:20;100112.03;;;-2.39;44.24
65534;BME280;53640;55.838;37.184;2023-11-18T08:00:50;100154.91;;;-1.98;43.81
65534;BME280;53640;55.838;37.184;2023-11-18T08:03:17;100127.56;;;-1.99;43.71
65534;BME280;53640;55.838;37.184;2023-11-18T08:05:44;100144.81;;;-1.71;43.56
65534;BME280;53640;55.838;37.184;2023-11-18T08:08:12;100114.91;;;-1.73;43.16
65534;BME280;53640;55.838;37.184;2023-11-18T08:10:41;100139.97;;;-1.32;42.66
65534;BME280;53640;55.838;37.184;2023-11-18T08:13:12;100137.44;;;-1.11;42.07
65534;BME280;53640;55.838;37.184;2023-11-18T08:15:42;100142.25;;;-0.94;41.94
65534;BME280;53640;55.838;37.184;2023-11-18T08:18:14;100133.38;;;-0.83;41.08
65534;BME280;53640;55.838;37.184;2023-11-18T08:21:07;100155.31;;;-0.58;40.88
65534;BME280;53640;55.838;37.184;2023-11-18T08:23:37;100013.09;;;-1.28;40.37
65534;BME280;53640;55.838;37.184;2023-11-18T08:26:04;99981.28;;;-1.40;40.55
65534;BME280;53640;55.838;37.184;2023-11-18T08:28:31;100079.16;;;-0.59;40.13
65534;BME280;53640;55.838;37.184;2023-11-18T08:30:58;100104.28;;;-0.31;39.54
65534;BME280;53640;55.838;37.184;2023-11-18T08:33:25;100065.28;;;-0.42;38.85
65534;BME280;53640;55.838;37.184;2023-11-18T08:35:52;100080.00;;;-0.17;39.07
65534;BME280;53640;55.838;37.184;2023-11-18T08:38:19;100033.03;;;-0.28;39.01
65534;BME280;53640;55.838;37.184;2023-11-18T08:40:46;100056.56;;;-0.02;38.77
65534;BME280;53640;55.838;37.184;2023-11-18T08:43:14;100142.31;;;0.53;38.26
65534;BME280;53640;55.838;37.184;2023-11-18T08:45:44;100114.53;;;0.46;37.58
65534;BME280;53640;55.838;37.184;2023-11-18T08:48:12;100118.38;;;0.63;37.95
65534;BME280;53640;55.838;37.184;2023-11-18T08:50:39;100079.59;;;0.49;37.47
65534;BME280;53640;55.838;37.184;2023-11-18T08:53:06;100116.22;;;0.87;37.43
65534;BME280;53640;55.838;37.184;2023-11-18T08:55:35;100080.16;;;0.83;37.07
65534;BME280;53640;55.838;37.184;2023-11-18T08:58:17;100098.44;;;1.07;36.94
65534;BME280;53640;55.838;37.184;2023-11-18T09:00:51;100115.03;;;1.30;36.67
65534;BME280;53640;55.838;37.184;2023-11-18T09:03:23;100089.63;;;1.26;36.04
65534;BME280;53640;55.838;37.184;2023-11-18T09:06:06;100011.41;;;0.87;35.98
65534;BME280;53640;55.838;37.184;2023-11-18T09:08:45;100112.78;;;1.64;35.80
65534;BME280;53640;55.838;37.184;2023-11-18T09:11:13;100132.72;;;1.89;35.64
65534;BME280;53640;55.838;37.184;2023-11-18T09:13:44;100040.38;;;1.40;35.16
65534;BME280;53640;55.838;37.184;2023-11-18T09:16:16;100123.16;;;1.87;34.90
65534;BME280;53640;55.838;37.184;2023-11-18T09:18:44;100075.59;;;1.33;34.94
65534;BME280;53640;55.838;37.184;2023-11-18T09:21:11;100123.31;;;1.46;34.48
65534;BME280;53640;55.838;37.184;2023-11-18T09:23:42;100070.66;;;1.00;35.50
65534;BME280;53640;55.838;37.184;2023-11-18T09:26:09;100124.28;;;1.16;35.44
65534;BME280;53640;55.838;37.184;2023-11-18T09:28:37;100129.25;;;0.90;35.28
65534;BME280;53640;55.838;37.184;2023-11-18T09:31:04;100043.41;;;0.36;35.84
65534;BME280;53640;55.838;37.184;2023-11-18T09:33:33;100098.34;;;0.78;35.42
65534;BME280;53640;55.838;37.184;2023-11-18T09:36:06;100129.81;;;0.84;35.38
65534;BME280;53640;55.838;37.184;2023-11-18T09:38:41;100085.13;;;0.67;35.59
65534;BME280;53640;55.838;37.184;2023-11-18T09:41:09;100120.75;;;0.96;36.16
65534;BME280;53640;55.838;37.184;2023-11-18T09:43:40;100047.38;;;1.02;36.40
65534;BME280;53640;55.838;37.184;2023-11-18T09:46:15;100129.22;;;1.69;34.42
65534;BME280;53640;55.838;37.184;2023-11-18T09:48:47;100124.00;;;1.87;33.87
65534;BME280;53640;55.838;37.184;2023-11-18T09:51:19;100123.88;;;1.89;33.55
65534;BME280;53640;55.838;37.184;2023-11-18T09:53:48;100122.03;;;1.79;32.62
65534;BME280;53640;55.838;37.184;2023-11-18T09:59:23;100118.94;;;1.36;32.69
65534;BME280;53640;55.838;37.184;2023-11-18T10:01:53;100078.44;;;0.82;32.45
65534;BME280;53640;55.838;37.184;2023-11-18T10:04:24;100107.50;;;0.85;32.92
65534;BME280;53640;55.838;37.184;2023-11-18T10:06:54;100119.81;;;0.76;33.51
65534;BME280;53640;55.838;37.184;2023-11-18T10:09:26;100042.81;;;0.23;34.13
65534;BME280;53640;55.838;37.184;2023-11-18T10:12:04;100104.03;;;0.54;34.54
65534;BME280;53640;55.838;37.184;2023-11-18T10:14:54;100108.44;;;0.65;34.38
65534;BME280;53640;55.838;37.184;2023-11-18T10:17:23;100113.47;;;0.68;34.56
65534;BME280;53640;55.838;37.184;2023-11-18T10:19:57;100113.09;;;0.72;34.77
65534;BME280;53640;55.838;37.184;2023-11-18T10:22:38;100080.28;;;0.81;34.54
65534;BME280;53640;55.838;37.184;2023-11-18T10:25:08;100113.34;;;1.10;34.14
65534;BME280;53640;55.838;37.184;2023-11-18T10:27:34;100077.59;;;0.81;34.32
65534;BME280;53640;55.838;37.184;2023-11-18T10:30:06;100092.28;;;1.16;34.93
65534;BME280;53640;55.838;37.184;2023-11-18T10:33:00;100057.91;;;1.13;33.96
65534;BME280;53640;55.838;37.184;2023-11-18T10:35:36;100060.28;;;1.36;33.75
65534;BME280;53640;55.838;37.184;2023-11-18T10:38:03;100082.88;;;1.70;33.34
65534;BME280;53640;55.838;37.184;2023-11-18T10:40:33;100075.56;;;1.72;32.88
65534;BME280;53640;55.838;37.184;2023-11-18T10:43:03;100061.81;;;1.67;32.82
65534;BME280;53640;55.838;37.184;2023-11-18T10:45:36;100106.03;;;1.89;32.83
65534;BME280;53640;55.838;37.184;2023-11-18T10:48:08;100095.22;;;1.71;33.00
65534;BME280;53640;55.838;37.184;2023-11-18T10:50:34;100028.00;;;1.19;33.32
65534;BME280;53640;55.838;37.184;2023-11-18T10:53:02;100036.69;;;1.31;32.86
65534;BME280;53640;55.838;37.184;2023-11-18T10:55:37;100066.31;;;1.57;32.74
65534;BME280;53640;55.838;37.184;2023-11-18T10:58:07;100110.66;;;1.97;32.62
65534;BME280;53640;55.838;37.184;2023-11-18T11:00:52;100105.41;;;2.15;32.55
65534;BME280;53640;55.838;37.184;2023-11-18T11:03:27;100091.75;;;2.18;32.29
65534;BME280;53640;55.838;37.184;2023-11-18T11:05:59;100068.47;;;2.00;32.01
65534;BME280;53640;55.838;37.184;2023-11-18T11:08:26;100063.41;;;2.07;31.69
65534;BME280;53640;55.838;37.184;2023-11-18T11:10:54;100097.22;;;2.26;31.63
65534;BME280;53640;55.838;37.184;2023-11-18T11:13:32;100069.66;;;2.25;31.84
65534;BME280;53640;55.838;37.184;2023-11-18T11:16:00;100079.53;;;2.52;31.61
65534;BME280;53640;55.838;37.184;2023-11-18T11:18:34;100071.16;;;2.65;30.85
65534;BME280;53640;55.838;37.184;2023-11-18T11:21:15;100103.84;;;2.87;30.75
65534;BME280;53640;55.838;37.184;2023-11-18T11:26:41;100096.97;;;2.74;30.23
65534;BME280;53640;55.838;37.184;2023-11-18T11:29:25;100104.31;;;2.72;30.23
65534;BME280;53640;55.838;37.184;2023-11-18T11:34:53;100089.88;;;2.65;30.50
65534;BME280;53640;55.838;37.184;2023-11-18T11:37:22;100063.53;;;2.70;30.21
65534;BME280;53640;55.838;37.184;2023-11-18T11:39:50;100063.22;;;2.73;30.15
65534;BME280;53640;55.838;37.184;2023-11-18T11:42:20;100065.31;;;2.79;30.21
65534;BME280;53640;55.838;37.184;2023-11-18T11:44:49;100091.13;;;3.16;30.14
65534;BME280;53640;55.838;37.184;2023-11-18T11:47:20;100047.13;;;3.01;29.78
65534;BME280;53640;55.838;37.184;2023-11-18T11:50:43;100078.56;;;3.35;29.69
65534;BME280;53640;55.838;37.184;2023-11-18T11:53:11;100101.78;;;3.62;29.72
65534;BME280;53640;55.838;37.184;2023-11-18T11:55:53;100050.22;;;3.42;29.30
65534;BME280;53640;55.838;37.184;2023-11-18T11:58:34;100038.28;;;3.36;28.96
65534;BME280;53640;55.838;37.184;2023-11-18T12:01:25;100093.38;;;3.83;29.05
65534;BME280;53640;55.838;37.184;2023-11-18T12:04:15;100088.28;;;3.71;29.28
65534;BME280;53640;55.838;37.184;2023-11-18T12:06:48;100066.03;;;3.53;29.04
65534;BME280;53640;55.838;37.184;2023-11-18T12:09:20;100051.53;;;3.38;29.11
65534;BME280;53640;55.838;37.184;2023-11-18T12:11:49;100097.91;;;3.64;29.71
65534;BME280;53640;55.838;37.184;2023-11-18T12:14:17;100044.41;;;3.28;29.21
65534;BME280;53640;55.838;37.184;2023-11-18T12:17:03;100084.78;;;3.53;29.51
65534;BME280;53640;55.838;37.184;2023-11-18T12:19:41;100093.97;;;3.50;29.50
65534;BME280;53640;55.838;37.184;2023-11-18T12:22:20;100061.13;;;3.31;29.59
65534;BME280;53640;55.838;37.184;2023-11-18T12:33:10;100091.72;;;3.10;30.64
65534;BME280;53640;55.838;37.184;2023-11-18T12:41:08;100064.31;;;2.25;31.60
65534;BME280;53640;55.838;37.184;2023-11-18T12:49:16;100062.50;;;1.69;32.88
65534;BME280;53640;55.838;37.184;2023-11-18T12:51:47;100074.19;;;1.59;33.19
65534;BME280;53640;55.838;37.184;2023-11-18T12:54:15;100065.59;;;1.36;33.29
65534;BME280;53640;55.838;37.184;2023-11-18T12:56:48;100085.28;;;1.35;33.50
65534;BME280;53640;55.838;37.184;2023-11-18T12:59:18;100080.78;;;1.16;33.27
65534;BME280;53640;55.838;37.184;2023-11-18T13:01:46;100111.25;;;1.13;33.57
65534;BME280;53640;55.838;37.184;2023-11-18T13:04:19;100111.91;;;0.96;33.89
65534;BME280;53640;55.838;37.184;2023-11-18T13:06:47;100084.72;;;0.62;33.98
65534;BME280;53640;55.838;37.184;2023-11-18T13:09:15;100067.13;;;0.40;34.41
65534;BME280;53640;55.838;37.184;2023-11-18T13:11:56;100090.28;;;0.18;34.63
65534;BME280;53640;55.838;37.184;2023-11-18T13:14:27;100108.34;;;0.15;34.82
65534;BME280;53640;55.838;37.184;2023-11-18T13:16:57;100088.56;;;-0.34;35.13
65534;BME280;53640;55.838;37.184;2023-11-18T13:22:00;100103.63;;;-0.77;36.35
65534;BME280;53640;55.838;37.184;2023-11-18T13:24:27;100096.22;;;-1.05;36.80
65534;BME280;53640;55.838;37.184;2023-11-18T13:26:55;100130.53;;;-1.02;36.80
65534;BME280;53640;55.838;37.184;2023-11-18T13:29:23;100083.38;;;-1.44;37.26